Time;durP1;ratioP1;P1;durP2;ratioP2;P2;SDS_P1;SDS_P2;PMS_P1;PMS_P2;Temp;Humidity;BMP_temperature;BMP_pressure;BME280_temperature;BME280_humidity;BME280_pressure;Samples;Min_cycle;Max_cycle;Signal;HPM_P1;HPM_P2
2022/10/24 00:00:55;;;;;;;13.40;4.70;;;14.80;99.90;;;;;;5054033;28;20074;-46
2022/10/24 00:03:21;;;;;;;15.52;4.32;;;14.80;99.90;;;;;;5053667;28;20028;-43
2022/10/24 00:05:47;;;;;;;6.07;3.97;;;14.80;99.90;;;;;;5053752;28;20029;-44
2022/10/24 00:08:13;;;;;;;12.95;3.90;;;14.80;99.90;;;;;;5054050;28;20029;-43
2022/10/24 00:10:43;;;;;;;8.88;3.05;;;14.90;99.90;;;;;;5054021;28;20033;-49
2022/10/24 00:13:10;;;;;;;5.85;3.65;;;14.70;99.90;;;;;;5053960;28;20090;-45
2022/10/24 00:15:36;;;;;;;9.20;4.15;;;14.60;99.90;;;;;;5053836;28;20025;-42
2022/10/24 00:18:01;;;;;;;11.48;3.75;;;14.60;99.90;;;;;;5053641;28;20104;-45
2022/10/24 00:20:27;;;;;;;7.43;4.00;;;14.60;99.90;;;;;;5053650;28;20032;-43
2022/10/24 00:22:52;;;;;;;8.65;3.65;;;14.60;99.90;;;;;;5052032;28;20036;-43
2022/10/24 00:25:18;;;;;;;10.40;4.72;;;14.50;99.90;;;;;;5053303;28;20033;-45
2022/10/24 00:27:44;;;;;;;10.32;5.07;;;14.50;99.90;;;;;;5068978;28;20480;-46
2022/10/24 00:30:10;;;;;;;10.90;4.55;;;14.50;99.90;;;;;;5053644;28;20396;-43
2022/10/24 00:32:35;;;;;;;12.15;5.13;;;14.50;99.90;;;;;;5052898;28;20453;-48
2022/10/24 00:35:01;;;;;;;12.98;5.55;;;14.50;99.90;;;;;;5053618;28;20103;-42
2022/10/24 00:37:26;;;;;;;13.60;5.75;;;14.50;99.90;;;;;;5053234;28;20484;-45
2022/10/24 00:39:52;;;;;;;8.82;5.45;;;14.50;99.90;;;;;;5053451;28;20541;-42
2022/10/24 00:42:17;;;;;;;10.75;5.28;;;14.40;99.90;;;;;;5052564;28;20500;-42
2022/10/24 00:44:45;;;;;;;13.95;4.95;;;14.50;99.90;;;;;;5051528;28;20025;-47
2022/10/24 00:47:20;;;;;;;17.52;7.03;;;14.50;99.90;;;;;;5053503;28;20040;-42
2022/10/24 00:50:01;;;;;;;7.63;4.55;;;14.50;99.90;;;;;;5053149;28;20423;-42
2022/10/24 00:52:33;;;;;;;12.50;6.25;;;14.50;99.90;;;;;;5052739;28;20445;-44
2022/10/24 00:55:01;;;;;;;10.35;5.00;;;14.40;99.90;;;;;;5053027;28;20111;-44
2022/10/24 00:57:41;;;;;;;11.95;4.95;;;14.40;99.90;;;;;;5052867;28;20025;-42
2022/10/24 01:00:14;;;;;;;9.82;4.72;;;14.40;99.90;;;;;;5053229;28;20369;-45
2022/10/24 01:02:40;;;;;;;9.32;5.38;;;14.50;99.90;;;;;;5052564;28;20407;-41
2022/10/24 01:05:08;;;;;;;14.88;6.00;;;14.40;99.90;;;;;;5052970;28;20057;-43
2022/10/24 01:07:59;;;;;;;12.48;6.88;;;14.40;99.90;;;;;;5052743;28;20056;-42
2022/10/24 01:10:48;;;;;;;83.25;50.67;;;14.40;99.90;;;;;;5048761;28;20086;-42
2022/10/24 01:13:42;;;;;;;53.13;30.83;;;14.50;99.90;;;;;;5052452;28;20017;-45
2022/10/24 01:16:22;;;;;;;14.98;8.35;;;14.50;99.90;;;;;;5052581;28;20029;-42
2022/10/24 01:19:01;;;;;;;10.05;6.03;;;14.50;99.90;;;;;;5052515;28;20388;-42
2022/10/24 01:21:38;;;;;;;20.75;5.40;;;14.40;99.90;;;;;;5052503;28;20127;-45
2022/10/24 01:24:23;;;;;;;10.55;5.03;;;14.30;99.90;;;;;;5052304;28;20391;-41
2022/10/24 01:26:59;;;;;;;;;;;14.20;99.90;;;;;;5052669;28;20049;-45
2022/10/24 01:29:48;;;;;;;6.43;4.13;;;14.10;99.90;;;;;;5052603;28;20335;-43
2022/10/24 01:32:28;;;;;;;8.68;4.18;;;14.10;99.90;;;;;;5052205;28;20036;-43
2022/10/24 01:35:04;;;;;;;9.38;4.72;;;14.00;99.90;;;;;;5052486;28;20029;-39
2022/10/24 01:37:43;;;;;;;7.00;4.63;;;14.00;99.90;;;;;;5052128;28;20032;-46
2022/10/24 01:40:16;;;;;;;8.10;4.32;;;13.90;99.90;;;;;;5052785;28;20029;-41
2022/10/24 01:42:43;;;;;;;7.97;4.07;;;13.90;99.90;;;;;;5051213;28;20029;-41
2022/10/24 01:45:12;;;;;;;10.85;4.32;;;13.90;99.90;;;;;;5052362;28;20469;-43
2022/10/24 01:47:43;;;;;;;8.55;3.88;;;13.90;99.90;;;;;;5052133;28;20024;-46
2022/10/24 01:50:12;;;;;;;12.35;4.63;;;13.80;99.90;;;;;;5052404;28;20029;-43
2022/10/24 01:52:41;;;;;;;8.98;4.50;;;13.80;99.90;;;;;;5051852;28;20593;-41
2022/10/24 01:55:07;;;;;;;7.05;3.55;;;13.80;99.90;;;;;;5051662;28;20029;-43
2022/10/24 01:57:34;;;;;;;10.50;4.78;;;13.80;99.90;;;;;;5052034;28;20028;-46
2022/10/24 01:59:59;;;;;;;7.78;4.70;;;13.80;99.90;;;;;;5052235;28;20041;-48
2022/10/24 02:02:38;;;;;;;8.18;4.78;;;13.80;99.90;;;;;;5051558;28;20109;-45
2022/10/24 02:05:12;;;;;;;8.35;3.47;;;13.80;99.90;;;;;;5051839;28;20021;-41
2022/10/24 02:07:41;;;;;;;7.18;4.53;;;13.70;99.90;;;;;;5051927;28;20560;-41
2022/10/24 02:10:11;;;;;;;7.57;3.80;;;13.70;99.90;;;;;;5051878;28;20033;-44
2022/10/24 02:12:41;;;;;;;5.35;4.15;;;13.70;99.90;;;;;;5051453;28;20468;-41
2022/10/24 02:15:13;;;;;;;6.43;3.42;;;13.60;99.90;;;;;;5052060;28;20020;-43
2022/10/24 02:17:38;;;;;;;8.00;3.75;;;13.60;99.90;;;;;;5051891;28;20028;-41
2022/10/24 02:20:05;;;;;;;8.00;3.65;;;13.50;99.90;;;;;;5050790;28;20369;-43
2022/10/24 02:22:56;;;;;;;6.68;3.95;;;13.50;99.90;;;;;;5051496;28;20029;-44
2022/10/24 02:25:31;;;;;;;11.85;4.55;;;13.40;99.90;;;;;;5052388;28;20028;-43
2022/10/24 02:28:18;;;;;;;8.60;3.75;;;13.40;99.90;;;;;;5052167;28;20076;-44
2022/10/24 02:31:10;;;;;;;10.35;4.78;;;13.40;99.90;;;;;;5052017;28;20029;-45
2022/10/24 02:33:39;;;;;;;8.07;3.92;;;13.40;99.90;;;;;;5051503;28;20075;-44
2022/10/24 02:36:08;;;;;;;9.65;3.88;;;13.30;99.90;;;;;;5051571;28;20036;-47
2022/10/24 02:38:37;;;;;;;6.32;3.70;;;13.30;99.90;;;;;;5051979;28;20524;-44
2022/10/24 02:41:10;;;;;;;10.45;3.55;;;13.40;99.90;;;;;;5051393;28;20025;-41
2022/10/24 02:43:38;;;;;;;10.32;4.78;;;13.40;99.90;;;;;;5049978;28;20021;-42
2022/10/24 02:46:05;;;;;;;8.50;3.47;;;13.40;99.90;;;;;;5051454;28;20017;-47
2022/10/24 02:48:41;;;;;;;6.57;4.13;;;13.40;99.90;;;;;;5051409;28;20032;-45
2022/10/24 02:51:07;;;;;;;16.98;5.05;;;13.40;99.90;;;;;;5051840;28;20032;-41
2022/10/24 02:53:35;;;;;;;14.43;3.72;;;13.40;99.90;;;;;;5051007;28;20027;-46
2022/10/24 02:56:01;;;;;;;5.13;3.63;;;13.30;99.90;;;;;;5066801;28;20029;-41
2022/10/24 02:58:27;;;;;;;12.52;3.88;;;13.30;99.90;;;;;;5051399;28;20528;-45
2022/10/24 03:00:52;;;;;;;9.82;3.83;;;13.30;99.90;;;;;;5051843;28;20573;-41
2022/10/24 03:03:18;;;;;;;6.18;3.88;;;13.30;99.90;;;;;;5050813;28;20029;-44
2022/10/24 03:05:43;;;;;;;8.60;3.80;;;13.30;99.90;;;;;;5051120;28;20028;-43
2022/10/24 03:08:10;;;;;;;4.35;3.10;;;13.20;99.90;;;;;;5051301;28;20036;-48
2022/10/24 03:10:35;;;;;;;5.53;3.65;;;13.20;99.90;;;;;;5051146;28;20108;-43
2022/10/24 03:13:02;;;;;;;8.30;5.93;;;13.20;99.90;;;;;;5050690;28;20152;-42
2022/10/24 03:15:28;;;;;;;24.95;16.35;;;13.20;99.90;;;;;;5051215;28;20025;-47
2022/10/24 03:17:53;;;;;;;98.80;64.63;;;13.20;99.90;;;;;;5049723;28;20059;-42
2022/10/24 03:20:19;;;;;;;23.70;14.65;;;13.20;99.90;;;;;;5051339;28;20028;-41
2022/10/24 03:22:44;;;;;;;9.48;5.32;;;13.20;99.90;;;;;;5050450;28;20029;-44
2022/10/24 03:25:10;;;;;;;12.05;4.13;;;13.20;99.90;;;;;;5066220;28;20036;-39
2022/10/24 03:27:36;;;;;;;9.77;4.18;;;13.20;99.90;;;;;;5051805;28;20017;-41
2022/10/24 03:30:03;;;;;;;9.05;4.28;;;13.20;99.90;;;;;;5050896;28;20499;-41
2022/10/24 03:32:28;;;;;;;8.68;5.30;;;13.20;99.90;;;;;;5050625;28;20033;-44
2022/10/24 03:34:54;;;;;;;11.10;4.13;;;13.20;99.90;;;;;;5068385;28;20025;-41
2022/10/24 03:37:20;;;;;;;9.93;4.40;;;13.20;99.90;;;;;;5054444;28;20481;-44
2022/10/24 03:39:45;;;;;;;12.68;4.90;;;13.20;99.90;;;;;;5054805;28;20036;-43
2022/10/24 03:42:11;;;;;;;7.90;3.80;;;13.10;99.90;;;;;;5053691;28;20090;-42
2022/10/24 03:44:36;;;;;;;12.75;4.93;;;13.10;99.90;;;;;;5054195;28;20029;-42
2022/10/24 03:47:02;;;;;;;6.32;3.50;;;13.10;99.90;;;;;;5054478;28;20366;-40
2022/10/24 03:49:28;;;;;;;11.27;5.10;;;13.10;99.90;;;;;;5054444;28;20052;-39
2022/10/24 03:51:53;;;;;;;9.88;4.32;;;13.10;99.90;;;;;;5070369;28;20285;-39
2022/10/24 03:54:19;;;;;;;7.25;4.93;;;13.10;99.90;;;;;;5054082;28;20079;-41
2022/10/24 03:56:46;;;;;;;8.82;4.97;;;13.10;99.90;;;;;;5054881;28;20048;-44
2022/10/24 03:59:12;;;;;;;9.25;4.72;;;13.10;99.90;;;;;;5054951;28;20459;-42
2022/10/24 04:01:37;;;;;;;14.25;4.68;;;13.20;99.90;;;;;;5054746;28;20117;-42
2022/10/24 04:04:03;;;;;;;8.18;4.65;;;13.20;99.90;;;;;;5054537;28;20028;-41
2022/10/24 04:06:29;;;;;;;8.77;4.40;;;13.20;99.90;;;;;;5054318;28;20029;-40
2022/10/24 04:08:55;;;;;;;11.93;5.88;;;13.20;99.90;;;;;;5053958;28;20468;-41
2022/10/24 04:11:21;;;;;;;8.63;4.82;;;13.20;99.90;;;;;;5054087;28;20024;-48
2022/10/24 04:13:47;;;;;;;11.27;4.78;;;13.20;99.90;;;;;;5053501;28;20476;-42
2022/10/24 04:16:13;;;;;;;8.07;4.97;;;13.30;99.90;;;;;;5054021;28;20548;-42
2022/10/24 04:18:38;;;;;;;8.88;4.20;;;13.20;99.90;;;;;;5053932;28;20412;-44
2022/10/24 04:21:04;;;;;;;10.07;4.68;;;13.30;99.90;;;;;;5054081;28;20380;-47
2022/10/24 04:23:34;;;;;;;15.65;5.18;;;13.30;99.90;;;;;;5052934;28;20029;-45
2022/10/24 04:26:00;;;;;;;14.90;5.38;;;13.30;99.90;;;;;;5053379;28;20552;-46
2022/10/24 04:28:26;;;;;;;10.52;4.57;;;13.30;99.90;;;;;;5053408;28;20105;-43
2022/10/24 04:30:56;;;;;;;12.75;4.22;;;13.40;99.90;;;;;;5053232;28;20031;-44
2022/10/24 04:33:21;;;;;;;15.10;4.72;;;13.50;99.90;;;;;;5053583;28;20108;-41
2022/10/24 04:35:48;;;;;;;14.02;4.30;;;13.60;99.90;;;;;;5055622;28;20479;-40
2022/10/24 04:38:14;;;;;;;11.10;4.57;;;13.70;99.90;;;;;;5055072;28;20108;-41
2022/10/24 04:40:39;;;;;;;10.48;3.65;;;13.80;99.90;;;;;;5054931;28;20084;-42
2022/10/24 04:43:05;;;;;;;9.95;4.40;;;13.80;99.90;;;;;;5070768;28;20025;-42
2022/10/24 04:45:30;;;;;;;10.40;4.30;;;13.70;99.90;;;;;;5055300;28;20084;-41
2022/10/24 04:47:56;;;;;;;15.38;4.57;;;13.70;99.90;;;;;;5055163;28;20025;-41
2022/10/24 04:50:21;;;;;;;12.27;4.40;;;13.70;99.90;;;;;;5054118;28;20036;-42
2022/10/24 04:52:47;;;;;;;15.30;4.32;;;13.70;99.90;;;;;;5052694;28;20140;-43
2022/10/24 04:55:12;;;;;;;17.13;4.72;;;13.60;99.90;;;;;;5052749;28;20028;-43
2022/10/24 04:57:38;;;;;;;9.65;4.10;;;13.60;99.90;;;;;;5053085;28;20095;-42
2022/10/24 05:00:05;;;;;;;10.93;4.00;;;13.50;99.90;;;;;;5053097;28;20104;-41
2022/10/24 05:02:30;;;;;;;9.77;4.03;;;13.40;99.90;;;;;;5052767;28;20029;-43
2022/10/24 05:04:56;;;;;;;10.05;3.92;;;13.30;99.90;;;;;;5053249;28;20484;-44
2022/10/24 05:07:21;;;;;;;17.88;5.57;;;13.30;99.90;;;;;;5053435;28;20036;-45
2022/10/24 05:09:47;;;;;;;17.23;5.10;;;13.40;99.90;;;;;;5053092;28;20021;-41
2022/10/24 05:12:12;;;;;;;17.08;4.80;;;13.60;99.90;;;;;;5052222;28;20028;-48
2022/10/24 05:14:38;;;;;;;9.15;4.15;;;13.60;99.90;;;;;;5052455;28;20032;-46
2022/10/24 05:17:03;;;;;;;9.30;3.95;;;13.60;99.90;;;;;;5052476;28;20083;-43
2022/10/24 05:19:29;;;;;;;8.13;4.05;;;13.50;99.90;;;;;;5052320;28;20025;-39
2022/10/24 05:21:54;;;;;;;14.48;4.65;;;13.50;99.90;;;;;;5067426;28;20025;-44
2022/10/24 05:24:20;;;;;;;13.98;4.53;;;13.50;99.90;;;;;;5052144;28;20082;-42
2022/10/24 05:26:46;;;;;;;21.50;6.70;;;13.60;99.90;;;;;;5052239;28;20021;-41
2022/10/24 05:29:11;;;;;;;24.13;5.85;;;13.80;99.90;;;;;;5052349;28;20032;-44
2022/10/24 05:31:37;;;;;;;15.98;5.45;;;14.00;99.90;;;;;;5051950;28;20021;-44
2022/10/24 05:34:02;;;;;;;16.80;4.45;;;14.00;99.90;;;;;;5099709;22;20059;-49
2022/10/24 05:36:28;;;;;;;31.10;5.20;;;14.20;99.90;;;;;;5092089;28;20028;-51
2022/10/24 05:38:53;;;;;;;14.90;4.60;;;14.20;99.90;;;;;;5092700;28;20024;-55
2022/10/24 05:41:19;;;;;;;8.77;4.22;;;14.30;99.90;;;;;;5091817;28;20031;-52
2022/10/24 05:43:44;;;;;;;10.55;4.47;;;14.40;99.90;;;;;;5091864;28;20035;-50
2022/10/24 05:46:10;;;;;;;13.88;3.50;;;14.40;99.90;;;;;;5091922;28;20113;-52
2022/10/24 05:48:35;;;;;;;11.15;3.72;;;14.40;99.90;;;;;;5092101;28;20016;-52
2022/10/24 05:51:01;;;;;;;16.67;4.30;;;14.40;99.90;;;;;;5091944;28;20028;-50
2022/10/24 05:53:26;;;;;;;14.07;4.85;;;14.50;99.90;;;;;;5091690;28;20131;-51
2022/10/24 05:55:52;;;;;;;14.88;4.78;;;14.50;99.90;;;;;;5091897;28;20038;-54
2022/10/24 05:58:21;;;;;;;15.77;4.88;;;14.50;99.90;;;;;;5091417;28;20020;-52
2022/10/24 06:00:48;;;;;;;19.40;4.72;;;14.50;99.90;;;;;;5091768;28;20098;-53
2022/10/24 06:03:13;;;;;;;10.43;3.42;;;14.50;99.90;;;;;;5091536;28;20028;-50
2022/10/24 06:05:39;;;;;;;11.60;4.47;;;14.50;99.90;;;;;;5090237;28;20028;-49
2022/10/24 06:08:04;;;;;;;15.07;4.90;;;14.50;99.90;;;;;;5091692;28;20024;-50
2022/10/24 06:10:30;;;;;;;16.92;4.68;;;14.60;99.90;;;;;;5091612;28;20232;-49
2022/10/24 06:12:55;;;;;;;20.33;4.90;;;14.60;99.90;;;;;;5091502;28;20017;-47
2022/10/24 06:15:21;;;;;;;10.63;3.78;;;14.70;99.90;;;;;;5091580;28;20510;-49
2022/10/24 06:17:47;;;;;;;12.23;4.18;;;14.60;99.90;;;;;;5091605;28;20392;-50
2022/10/24 06:20:12;;;;;;;14.77;3.72;;;14.70;99.90;;;;;;5091483;28;20245;-51
2022/10/24 06:22:38;;;;;;;15.10;4.78;;;14.60;99.90;;;;;;5091329;28;20024;-47
2022/10/24 06:25:04;;;;;;;15.85;3.63;;;14.60;99.90;;;;;;5091570;28;20021;-47
2022/10/24 06:27:29;;;;;;;7.18;3.05;;;14.60;99.90;;;;;;5091390;28;20053;-49
2022/10/24 06:29:55;;;;;;;25.40;4.32;;;14.60;99.90;;;;;;5091218;28;20091;-45
2022/10/24 06:32:21;;;;;;;15.55;4.18;;;14.60;99.90;;;;;;5090996;28;20025;-43
2022/10/24 06:34:46;;;;;;;10.07;3.38;;;14.60;99.90;;;;;;5091271;28;20046;-48
2022/10/24 06:37:12;;;;;;;8.90;3.40;;;14.60;99.90;;;;;;5091591;28;20026;-50
2022/10/24 06:39:37;;;;;;;6.50;2.97;;;14.60;99.90;;;;;;5091681;28;20103;-50
2022/10/24 06:42:03;;;;;;;12.43;3.88;;;14.60;99.90;;;;;;5090600;28;20035;-46
2022/10/24 06:44:28;;;;;;;15.55;3.80;;;14.60;99.90;;;;;;5091508;28;20024;-52
2022/10/24 06:46:54;;;;;;;11.60;4.22;;;14.60;99.90;;;;;;5092170;28;20021;-48
2022/10/24 06:49:19;;;;;;;12.55;3.83;;;14.60;99.90;;;;;;5091587;28;20099;-50
2022/10/24 06:51:45;;;;;;;13.10;4.30;;;14.70;99.90;;;;;;5091340;28;20060;-53
2022/10/24 06:54:11;;;;;;;12.30;4.00;;;14.70;99.90;;;;;;5086210;28;20028;-53
2022/10/24 06:56:36;;;;;;;18.15;4.07;;;14.70;99.90;;;;;;5070875;28;20040;-57
2022/10/24 06:59:10;;;;;;;11.60;4.53;;;14.70;99.90;;;;;;5071053;28;20423;-56
2022/10/24 07:01:35;;;;;;;12.68;4.30;;;14.70;99.90;;;;;;5071041;28;20085;-55
2022/10/24 07:04:01;;;;;;;13.65;3.67;;;14.70;99.90;;;;;;5070687;28;20025;-53
2022/10/24 07:06:28;;;;;;;18.20;4.10;;;14.70;99.90;;;;;;5070893;28;20454;-50
2022/10/24 07:08:56;;;;;;;13.27;4.18;;;14.80;99.90;;;;;;5071598;28;20017;-55
2022/10/24 07:11:21;;;;;;;15.02;4.50;;;14.90;99.90;;;;;;5074613;28;20372;-50
2022/10/24 07:13:47;;;;;;;11.65;4.20;;;15.00;99.90;;;;;;5074365;28;20017;-48
2022/10/24 07:16:13;;;;;;;18.38;4.32;;;15.00;99.90;;;;;;5074547;28;20024;-55
2022/10/24 07:18:39;;;;;;;16.90;4.20;;;15.10;99.90;;;;;;5073320;28;20028;-54
2022/10/24 07:21:07;;;;;;;17.88;4.55;;;15.20;99.90;;;;;;5075085;28;20480;-54
2022/10/24 07:23:33;;;;;;;13.93;4.28;;;15.10;99.90;;;;;;5074226;28;20111;-54
2022/10/24 07:26:08;;;;;;;12.65;4.47;;;15.10;99.90;;;;;;5073080;28;20112;-57
2022/10/24 07:28:35;;;;;;;26.83;4.93;;;15.10;99.90;;;;;;5074594;28;20044;-49
2022/10/24 07:31:00;;;;;;;14.40;4.15;;;15.10;99.90;;;;;;5074316;28;20095;-55
2022/10/24 07:33:27;;;;;;;18.38;5.97;;;15.10;99.90;;;;;;5073915;28;20146;-51
2022/10/24 07:35:53;;;;;;;14.82;4.53;;;15.20;99.90;;;;;;5074250;28;20025;-52
2022/10/24 07:38:18;;;;;;;13.35;4.78;;;15.20;99.90;;;;;;5074222;28;20039;-53
2022/10/24 07:40:44;;;;;;;23.10;5.20;;;15.20;99.90;;;;;;5073738;28;20047;-56
2022/10/24 07:43:10;;;;;;;25.00;5.40;;;15.30;99.90;;;;;;5073977;28;20036;-51
2022/10/24 07:45:37;;;;;;;24.17;5.32;;;15.40;99.90;;;;;;5074396;28;20391;-52
2022/10/24 07:48:05;;;;;;;28.38;5.05;;;15.40;99.90;;;;;;5072991;28;20032;-50
2022/10/24 07:50:31;;;;;;;25.13;5.43;;;15.40;99.90;;;;;;5074106;28;20104;-50
2022/10/24 07:52:57;;;;;;;17.15;5.38;;;15.40;99.90;;;;;;5073711;28;20020;-51
2022/10/24 07:55:22;;;;;;;21.33;5.63;;;15.50;99.90;;;;;;5072703;28;20024;-50
2022/10/24 07:57:48;;;;;;;19.10;4.60;;;15.60;99.90;;;;;;5080190;28;20057;-49
2022/10/24 08:00:14;;;;;;;15.95;4.25;;;15.70;99.90;;;;;;5092866;28;20020;-50
2022/10/24 08:02:40;;;;;;;18.40;4.85;;;15.80;99.90;;;;;;5093611;28;20024;-53
2022/10/24 08:05:06;;;;;;;13.85;5.22;;;15.90;99.90;;;;;;5093817;28;20023;-52
2022/10/24 08:07:34;;;;;;;23.08;5.63;;;15.90;99.90;;;;;;5094057;28;20032;-56
2022/10/24 08:10:00;;;;;;;19.38;4.70;;;16.00;99.90;;;;;;5094078;28;20052;-48
2022/10/24 08:12:25;;;;;;;29.77;5.55;;;16.20;99.90;;;;;;5093612;28;20044;-51
2022/10/24 08:14:52;;;;;;;27.95;6.20;;;16.30;99.90;;;;;;5093847;28;20028;-55
2022/10/24 08:17:18;;;;;;;16.35;4.13;;;16.30;99.90;;;;;;5093806;28;20099;-52
2022/10/24 08:19:44;;;;;;;15.07;5.03;;;16.50;99.90;;;;;;5092316;28;20028;-51
2022/10/24 08:22:12;;;;;;;23.90;4.75;;;16.60;99.90;;;;;;5093335;28;20024;-52
2022/10/24 08:24:38;;;;;;;21.90;4.78;;;16.70;99.90;;;;;;5093427;28;20028;-50
2022/10/24 08:27:04;;;;;;;14.27;4.00;;;16.80;99.90;;;;;;5093726;28;20024;-52
2022/10/24 08:29:30;;;;;;;16.50;5.07;;;16.90;99.90;;;;;;5092523;28;20035;-51
2022/10/24 08:31:59;;;;;;;22.67;4.22;;;16.90;99.90;;;;;;5092249;28;20458;-52
2022/10/24 08:34:25;;;;;;;15.43;4.43;;;16.90;99.90;;;;;;5092091;28;20040;-50
2022/10/24 08:36:53;;;;;;;10.57;4.05;;;17.10;99.90;;;;;;5092386;28;20024;-50
2022/10/24 08:39:20;;;;;;;14.90;4.07;;;17.10;99.90;;;;;;5093441;28;20034;-51
2022/10/24 08:42:03;;;;;;;19.92;4.90;;;17.10;99.90;;;;;;5092151;28;20052;-53
2022/10/24 08:44:39;;;;;;;12.77;4.28;;;17.30;99.90;;;;;;5093045;28;20090;-51
2022/10/24 08:47:34;;;;;;;12.70;3.97;;;17.40;99.90;;;;;;5090011;28;20372;-51
2022/10/24 08:50:16;;;;;;;16.38;4.32;;;17.50;99.90;;;;;;5071574;28;20024;-51
2022/10/24 08:53:00;;;;;;;25.67;4.20;;;17.60;99.90;;;;;;5071306;28;20017;-46
2022/10/24 08:55:48;;;;;;;23.05;5.03;;;17.70;99.90;;;;;;5071583;28;20052;-55
2022/10/24 08:58:22;;;;;;;14.32;3.65;;;17.90;99.90;;;;;;5073440;28;20029;-56
2022/10/24 09:00:50;;;;;;;15.55;4.10;;;18.80;99.90;;;;;;5072826;28;20035;-50
2022/10/24 09:03:34;;;;;;;17.10;3.72;;;19.90;99.90;;;;;;5072644;28;20021;-51
2022/10/24 09:06:05;;;;;;;13.98;3.63;;;21.00;99.90;;;;;;5072564;28;20377;-50
2022/10/24 09:09:14;;;;;;;14.82;3.60;;;21.60;99.90;;;;;;5071892;28;20238;-48
2022/10/24 09:12:16;;;;;;;12.15;4.50;;;22.30;99.90;;;;;;5072865;28;20056;-54
2022/10/24 09:14:44;;;;;;;12.63;4.10;;;23.00;99.90;;;;;;5060284;28;20041;-53
2022/10/24 09:17:16;;;;;;;15.68;5.00;;;23.30;99.90;;;;;;5072622;28;20423;-53
2022/10/24 09:19:52;;;;;;;14.15;3.15;;;23.60;99.90;;;;;;5073121;28;20383;-49
2022/10/24 09:22:19;;;;;;;13.40;3.10;;;23.60;99.90;;;;;;5072547;28;20026;-47
2022/10/24 09:24:54;;;;;;;9.43;2.42;;;23.70;99.90;;;;;;5072608;28;20373;-50
2022/10/24 09:27:24;;;;;;;13.88;3.00;;;23.40;99.90;;;;;;5072456;28;20534;-48
2022/10/24 09:29:50;;;;;;;11.73;3.08;;;23.20;99.90;;;;;;5072636;28;20067;-48
2022/10/24 09:32:25;;;;;;;9.48;3.25;;;23.00;99.90;;;;;;5071324;28;20048;-52
2022/10/24 09:34:52;;;;;;;11.68;2.95;;;23.00;99.90;;;;;;5072619;28;20036;-53
2022/10/24 09:37:38;;;;;;;10.25;2.95;;;22.80;99.90;;;;;;5072416;28;20095;-52
2022/10/24 09:40:23;;;;;;;;;;;22.30;99.90;;;;;;5072765;28;20020;-50
2022/10/24 09:42:54;;;;;;;14.02;3.55;;;22.20;99.90;;;;;;5071597;28;19962;-49
2022/10/24 09:45:34;;;;;;;15.48;3.17;;;22.20;99.90;;;;;;5071991;28;20037;-50
2022/10/24 09:48:21;;;;;;;14.07;3.72;;;22.30;99.90;;;;;;5072194;28;20080;-49
2022/10/24 09:50:48;;;;;;;16.10;4.22;;;21.90;99.90;;;;;;5072357;28;20028;-49
2022/10/24 09:53:32;;;;;;;11.40;3.03;;;21.30;99.90;;;;;;5091878;28;20483;-54
2022/10/24 09:56:10;;;;;;;10.00;2.75;;;20.80;99.90;;;;;;5092217;28;20058;-46
2022/10/24 09:58:36;;;;;;;17.58;3.33;;;20.40;99.90;;;;;;5091809;28;20055;-47
2022/10/24 10:01:19;;;;;;;15.48;2.80;;;20.10;99.90;;;;;;5092142;28;20214;-49
2022/10/24 10:04:01;;;;;;;8.73;2.90;;;20.00;99.90;;;;;;5092398;28;20032;-52
2022/10/24 10:06:26;;;;;;;6.35;2.50;;;19.80;99.90;;;;;;5095798;28;20472;-51
2022/10/24 10:08:56;;;;;;;11.35;3.00;;;19.70;99.90;;;;;;5095736;28;20020;-52
2022/10/24 10:11:31;;;;;;;11.38;3.50;;;19.60;99.90;;;;;;5092676;28;20017;-48
2022/10/24 10:14:00;;;;;;;10.98;2.80;;;19.60;99.90;;;;;;5092699;28;20046;-54
2022/10/24 10:16:32;;;;;;;8.57;3.03;;;19.70;99.90;;;;;;5093797;28;20055;-51
2022/10/24 10:19:02;;;;;;;8.30;2.83;;;20.00;99.90;;;;;;5093276;28;20044;-50
2022/10/24 10:21:59;;;;;;;13.05;3.58;;;20.10;99.90;;;;;;5099221;28;20445;-51
2022/10/24 10:24:40;;;;;;;8.88;2.83;;;20.60;99.90;;;;;;5089339;28;20025;-47
2022/10/24 10:27:29;;;;;;;9.65;2.90;;;21.00;99.90;;;;;;5072629;28;20028;-48
2022/10/24 10:30:15;;;;;;;10.43;2.50;;;21.20;99.90;;;;;;5091123;28;20027;-49
2022/10/24 10:32:53;;;;;;;17.30;3.55;;;21.10;99.90;;;;;;5096319;28;20411;-47
2022/10/24 10:35:24;;;;;;;7.32;2.92;;;20.90;99.90;;;;;;5097977;28;20020;-52
2022/10/24 10:38:32;;;;;;;13.00;3.85;;;20.80;99.90;;;;;;5097399;28;20048;-51
2022/10/24 10:41:09;;;;;;;20.90;3.05;;;20.80;99.90;;;;;;5096848;28;20031;-52
2022/10/24 10:43:45;;;;;;;9.52;2.80;;;21.10;99.90;;;;;;5096693;28;20052;-50
2022/10/24 10:46:36;;;;;;;14.80;3.15;;;21.20;99.90;;;;;;5105313;28;20117;-52
2022/10/24 10:49:04;;;;;;;16.73;2.95;;;21.40;99.90;;;;;;5100098;28;20050;-50
2022/10/24 10:51:46;;;;;;;10.10;2.88;;;21.30;99.90;;;;;;5103555;28;20478;-45
2022/10/24 10:54:39;;;;;;;10.25;2.58;;;21.20;99.90;;;;;;5103528;28;20047;-47
2022/10/24 10:57:13;;;;;;;9.45;2.63;;;21.20;99.90;;;;;;5106369;28;20013;-47
2022/10/24 10:59:50;;;;;;;8.00;2.53;;;21.30;99.90;;;;;;5095423;28;20026;-50
2022/10/24 11:02:24;;;;;;;15.10;3.47;;;21.30;99.90;;;;;;5095462;28;20020;-50
2022/10/24 11:05:16;;;;;;;8.70;2.33;;;21.30;99.90;;;;;;5083675;28;20035;-49
2022/10/24 11:07:54;;;;;;;8.93;2.58;;;21.30;99.90;;;;;;5071767;28;20064;-49
2022/10/24 11:10:23;;;;;;;6.90;2.58;;;21.30;99.90;;;;;;5074796;28;20031;-49
2022/10/24 11:12:49;;;;;;;10.75;3.00;;;21.20;99.90;;;;;;5075233;28;20404;-45
2022/10/24 11:15:26;;;;;;;10.60;2.45;;;21.10;99.90;;;;;;5077166;28;20039;-48
2022/10/24 11:18:03;;;;;;;9.98;2.08;;;21.10;99.90;;;;;;5096339;28;20034;-51
2022/10/24 11:20:34;;;;;;;6.40;2.40;;;21.10;99.90;;;;;;5094343;28;20028;-48
2022/10/24 11:23:08;;;;;;;8.75;2.97;;;21.00;99.90;;;;;;5096942;28;20024;-51
2022/10/24 11:25:52;;;;;;;21.70;13.33;;;20.90;99.90;;;;;;5095484;28;20548;-49
2022/10/24 11:28:35;;;;;;;7.10;2.50;;;20.70;99.90;;;;;;5100314;28;20020;-53
2022/10/24 11:31:09;;;;;;;9.57;3.53;;;20.70;99.90;;;;;;5098145;28;20437;-52
2022/10/24 11:34:09;;;;;;;8.05;2.20;;;20.50;99.90;;;;;;5097967;28;20020;-48
2022/10/24 11:37:04;;;;;;;10.68;3.03;;;20.50;99.90;;;;;;5084378;22;20063;-47
2022/10/24 11:39:58;;;;;;;14.07;2.80;;;20.40;99.90;;;;;;5051461;28;20061;-46
2022/10/24 11:42:30;;;;;;;10.48;2.83;;;20.50;99.90;;;;;;5053691;28;20106;-45
2022/10/24 11:45:12;;;;;;;6.93;3.90;;;20.40;99.90;;;;;;5051242;28;20033;-46
2022/10/24 11:47:48;;;;;;;8.32;2.53;;;20.40;99.90;;;;;;5051880;28;20024;-44
2022/10/24 11:50:45;;;;;;;9.65;2.97;;;20.50;99.90;;;;;;5052056;28;20017;-47
2022/10/24 11:53:24;;;;;;;12.15;2.58;;;20.50;99.90;;;;;;5052998;28;20037;-45
2022/10/24 11:55:56;;;;;;;8.52;2.92;;;20.60;99.90;;;;;;5053045;28;20070;-47
2022/10/24 11:58:25;;;;;;;12.27;3.38;;;20.70;99.90;;;;;;5052557;28;20028;-49
2022/10/24 12:01:04;;;;;;;8.93;2.40;;;20.80;99.90;;;;;;5053630;28;20017;-46
2022/10/24 12:04:01;;;;;;;8.32;2.50;;;20.90;99.90;;;;;;5052068;28;20032;-45
2022/10/24 12:06:45;;;;;;;10.32;2.33;;;20.90;99.90;;;;;;5052480;28;20116;-47
2022/10/24 12:09:29;;;;;;;8.43;3.55;;;21.00;99.90;;;;;;5053454;28;20025;-44
2022/10/24 12:12:13;;;;;;;15.50;2.97;;;20.90;99.90;;;;;;5053437;28;20388;-46
2022/10/24 12:14:57;;;;;;;8.30;2.72;;;21.00;99.90;;;;;;5053624;28;20029;-46
2022/10/24 12:17:44;;;;;;;5.88;2.85;;;21.00;99.90;;;;;;5053836;28;20414;-45
2022/10/24 12:20:16;;;;;;;10.02;2.30;;;21.00;99.90;;;;;;5053589;28;20033;-45
2022/10/24 12:22:43;;;;;;;5.60;1.92;;;21.00;99.90;;;;;;5052927;28;20025;-44
2022/10/24 12:25:28;;;;;;;3.17;2.00;;;21.00;99.90;;;;;;5052950;28;20029;-49
2022/10/24 12:27:57;;;;;;;6.25;1.65;;;21.10;99.90;;;;;;5052130;28;20029;-46
2022/10/24 12:30:25;;;;;;;5.72;1.85;;;21.00;99.90;;;;;;5053458;28;20021;-43
2022/10/24 12:33:06;;;;;;;3.35;1.83;;;21.20;99.90;;;;;;5052905;28;20090;-44
2022/10/24 12:35:34;;;;;;;3.13;1.20;;;21.20;99.90;;;;;;5052539;28;20110;-49
2022/10/24 12:38:12;;;;;;;6.78;1.85;;;21.20;99.90;;;;;;5051956;28;20033;-44
2022/10/24 12:40:44;;;;;;;5.97;4.30;;;21.20;99.90;;;;;;5053146;28;20112;-47
2022/10/24 12:43:32;;;;;;;5.20;2.28;;;21.30;99.90;;;;;;5051783;28;20029;-47
2022/10/24 12:46:22;;;;;;;2.58;1.13;;;21.20;99.90;;;;;;5053540;28;20021;-47
2022/10/24 12:48:59;;;;;;;7.93;1.25;;;21.20;99.90;;;;;;5032996;28;20035;-50
2022/10/24 12:51:28;;;;;;;6.82;2.05;;;21.30;99.90;;;;;;5053687;28;20523;-47
2022/10/24 12:54:04;;;;;;;7.45;2.63;;;21.40;99.90;;;;;;5052461;28;20021;-49
2022/10/24 12:56:32;;;;;;;4.20;1.40;;;21.40;99.90;;;;;;5051403;28;20548;-46
2022/10/24 12:59:21;;;;;;;2.63;1.35;;;21.40;99.90;;;;;;5050852;28;20039;-45
2022/10/24 13:02:11;;;;;;;8.10;1.38;;;21.20;99.90;;;;;;5047112;28;20379;-48